sensor_id;sensor_type;location;lat;lon;timestamp;temperature;humidity
15364;DHT22;7781;49.690;6.472;2023-07-30T00:00:38;17.70;99.90
15364;DHT22;7781;49.690;6.472;2023-07-30T00:03:07;17.70;99.90
15364;DHT22;7781;49.690;6.472;2023-07-30T00:05:35;17.70;99.90
15364;DHT22;7781;49.690;6.472;2023-07-30T00:08:04;17.70;99.90
15364;DHT22;7781;49.690;6.472;2023-07-30T00:10:32;17.80;99.90
15364;DHT22;7781;49.690;6.472;2023-07-30T00:13:04;17.80;99.90
15364;DHT22;7781;49.690;6.472;2023-07-30T00:15:35;17.90;99.90
15364;DHT22;7781;49.690;6.472;2023-07-30T00:18:03;18.00;99.90
15364;DHT22;7781;49.690;6.472;2023-07-30T00:20:34;18.00;99.90
15364;DHT22;7781;49.690;6.472;2023-07-30T00:23:02;18.00;99.90
15364;DHT22;7781;49.690;6.472;2023-07-30T00:25:31;18.00;99.90
15364;DHT22;7781;49.690;6.472;2023-07-30T00:27:59;18.00;99.90
15364;DHT22;7781;49.690;6.472;2023-07-30T00:30:29;18.00;99.90
15364;DHT22;7781;49.690;6.472;2023-07-30T00:32:58;17.90;99.90
15364;DHT22;7781;49.690;6.472;2023-07-30T00:35:26;17.90;99.90
15364;DHT22;7781;49.690;6.472;2023-07-30T00:37:54;17.80;99.90
15364;DHT22;7781;49.690;6.472;2023-07-30T00:40:24;17.80;99.90
15364;DHT22;7781;49.690;6.472;2023-07-30T00:42:53;17.70;99.90
15364;DHT22;7781;49.690;6.472;2023-07-30T00:45:21;17.70;99.90
15364;DHT22;7781;49.690;6.472;2023-07-30T00:47:51;17.60;99.90
15364;DHT22;7781;49.690;6.472;2023-07-30T00:50:20;17.60;99.90
15364;DHT22;7781;49.690;6.472;2023-07-30T00:52:49;17.50;99.90
15364;DHT22;7781;49.690;6.472;2023-07-30T00:55:18;17.60;99.90
15364;DHT22;7781;49.690;6.472;2023-07-30T00:57:48;17.50;99.90
15364;DHT22;7781;49.690;6.472;2023-07-30T01:00:17;17.50;99.90
15364;DHT22;7781;49.690;6.472;2023-07-30T01:02:46;17.50;99.90
15364;DHT22;7781;49.690;6.472;2023-07-30T01:05:16;17.50;99.90
15364;DHT22;7781;49.690;6.472;2023-07-30T01:07:46;17.40;99.90
15364;DHT22;7781;49.690;6.472;2023-07-30T01:10:15;17.40;99.90
15364;DHT22;7781;49.690;6.472;2023-07-30T01:12:45;17.40;99.90
15364;DHT22;7781;49.690;6.472;2023-07-30T01:15:14;17.30;99.90
15364;DHT22;7781;49.690;6.472;2023-07-30T01:17:43;17.30;99.90
15364;DHT22;7781;49.690;6.472;2023-07-30T01:20:13;17.30;99.90
15364;DHT22;7781;49.690;6.472;2023-07-30T01:22:43;17.30;99.90
15364;DHT22;7781;49.690;6.472;2023-07-30T01:25:12;17.30;99.90
15364;DHT22;7781;49.690;6.472;2023-07-30T01:27:49;17.20;99.90
15364;DHT22;7781;49.690;6.472;2023-07-30T01:30:21;17.20;99.90
15364;DHT22;7781;49.690;6.472;2023-07-30T01:32:52;17.10;99.90
15364;DHT22;7781;49.690;6.472;2023-07-30T01:35:24;17.10;99.90
15364;DHT22;7781;49.690;6.472;2023-07-30T01:37:57;17.00;99.90
15364;DHT22;7781;49.690;6.472;2023-07-30T01:40:29;17.00;99.90
15364;DHT22;7781;49.690;6.472;2023-07-30T01:42:58;17.00;99.90
15364;DHT22;7781;49.690;6.472;2023-07-30T01:45:26;16.90;99.90
15364;DHT22;7781;49.690;6.472;2023-07-30T01:47:55;16.90;99.90
15364;DHT22;7781;49.690;6.472;2023-07-30T01:50:23;16.80;99.90
15364;DHT22;7781;49.690;6.472;2023-07-30T01:52:52;16.80;99.90
15364;DHT22;7781;49.690;6.472;2023-07-30T01:55:22;16.70;99.90
15364;DHT22;7781;49.690;6.472;2023-07-30T01:57:50;16.60;99.90
15364;DHT22;7781;49.690;6.472;2023-07-30T02:00:19;16.60;99.90
15364;DHT22;7781;49.690;6.472;2023-07-30T02:02:48;16.50;99.90
15364;DHT22;7781;49.690;6.472;2023-07-30T02:05:17;16.40;99.90
15364;DHT22;7781;49.690;6.472;2023-07-30T02:07:45;16.30;99.90
15364;DHT22;7781;49.690;6.472;2023-07-30T02:10:14;16.30;99.90
15364;DHT22;7781;49.690;6.472;2023-07-30T02:12:46;16.30;99.90
15364;DHT22;7781;49.690;6.472;2023-07-30T02:15:15;16.20;99.90
15364;DHT22;7781;49.690;6.472;2023-07-30T02:17:44;16.20;99.90
15364;DHT22;7781;49.690;6.472;2023-07-30T02:20:12;16.20;99.90
15364;DHT22;7781;49.690;6.472;2023-07-30T02:22:41;16.10;99.90
15364;DHT22;7781;49.690;6.472;2023-07-30T02:25:12;16.20;99.90
15364;DHT22;7781;49.690;6.472;2023-07-30T02:27:40;16.10;99.90
15364;DHT22;7781;49.690;6.472;2023-07-30T02:30:11;16.20;99.90
15364;DHT22;7781;49.690;6.472;2023-07-30T02:32:41;16.20;99.90
15364;DHT22;7781;49.690;6.472;2023-07-30T02:35:10;16.20;99.90
15364;DHT22;7781;49.690;6.472;2023-07-30T02:37:39;16.20;99.90
15364;DHT22;7781;49.690;6.472;2023-07-30T02:40:09;16.30;99.90
15364;DHT22;7781;49.690;6.472;2023-07-30T02:42:39;16.20;99.90
15364;DHT22;7781;49.690;6.472;2023-07-30T02:45:08;16.30;99.90
15364;DHT22;7781;49.690;6.472;2023-07-30T02:47:39;16.20;99.90
15364;DHT22;7781;49.690;6.472;2023-07-30T02:50:08;16.20;99.90
15364;DHT22;7781;49.690;6.472;2023-07-30T02:52:37;16.20;99.90
15364;DHT22;7781;49.690;6.472;2023-07-30T02:55:06;16.30;99.90
15364;DHT22;7781;49.690;6.472;2023-07-30T02:57:35;16.30;99.90
15364;DHT22;7781;49.690;6.472;2023-07-30T03:00:04;16.20;99.90
15364;DHT22;7781;49.690;6.472;2023-07-30T03:02:33;16.20;99.90
15364;DHT22;7781;49.690;6.472;2023-07-30T03:05:04;16.20;99.90
15364;DHT22;7781;49.690;6.472;2023-07-30T03:07:34;16.20;99.90
15364;DHT22;7781;49.690;6.472;2023-07-30T03:10:04;16.20;99.90
15364;DHT22;7781;49.690;6.472;2023-07-30T03:12:32;16.20;99.90
15364;DHT22;7781;49.690;6.472;2023-07-30T03:15:01;16.10;99.90
15364;DHT22;7781;49.690;6.472;2023-07-30T03:17:31;16.10;99.90
15364;DHT22;7781;49.690;6.472;2023-07-30T03:20:03;16.10;99.90
15364;DHT22;7781;49.690;6.472;2023-07-30T03:22:32;16.00;99.90
15364;DHT22;7781;49.690;6.472;2023-07-30T03:25:01;15.90;99.90
15364;DHT22;7781;49.690;6.472;2023-07-30T03:27:31;15.90;99.90
15364;DHT22;7781;49.690;6.472;2023-07-30T03:30:00;15.90;99.90
15364;DHT22;7781;49.690;6.472;2023-07-30T03:32:29;15.90;99.90
15364;DHT22;7781;49.690;6.472;2023-07-30T03:34:59;15.90;99.90
15364;DHT22;7781;49.690;6.472;2023-07-30T03:37:29;15.90;99.90
15364;DHT22;7781;49.690;6.472;2023-07-30T03:39:58;16.00;99.90
15364;DHT22;7781;49.690;6.472;2023-07-30T03:42:26;16.00;99.90
15364;DHT22;7781;49.690;6.472;2023-07-30T03:44:54;16.00;99.90
15364;DHT22;7781;49.690;6.472;2023-07-30T03:47:22;16.10;99.90
15364;DHT22;7781;49.690;6.472;2023-07-30T03:49:52;16.10;99.90
15364;DHT22;7781;49.690;6.472;2023-07-30T03:52:20;16.20;99.90
15364;DHT22;7781;49.690;6.472;2023-07-30T03:54:50;16.20;99.90
15364;DHT22;7781;49.690;6.472;2023-07-30T03:57:19;16.20;99.90
15364;DHT22;7781;49.690;6.472;2023-07-30T03:59:47;16.30;99.90
15364;DHT22;7781;49.690;6.472;2023-07-30T04:02:16;16.30;99.90
15364;DHT22;7781;49.690;6.472;2023-07-30T04:04:46;16.40;99.90
15364;DHT22;7781;49.690;6.472;2023-07-30T04:07:16;16.50;99.90
15364;DHT22;7781;49.690;6.472;2023-07-30T04:09:45;16.50;99.90
15364;DHT22;7781;49.690;6.472;2023-07-30T04:12:18;16.50;99.90
15364;DHT22;7781;49.690;6.472;2023-07-30T04:14:48;16.50;99.90
15364;DHT22;7781;49.690;6.472;2023-07-30T04:17:16;16.60;99.90
15364;DHT22;7781;49.690;6.472;2023-07-30T04:19:48;16.50;99.90
15364;DHT22;7781;49.690;6.472;2023-07-30T04:22:16;16.60;99.90
15364;DHT22;7781;49.690;6.472;2023-07-30T04:24:46;16.60;99.90
15364;DHT22;7781;49.690;6.472;2023-07-30T04:27:17;16.60;99.90
15364;DHT22;7781;49.690;6.472;2023-07-30T04:29:46;16.60;99.90
15364;DHT22;7781;49.690;6.472;2023-07-30T04:32:15;16.70;99.90
15364;DHT22;7781;49.690;6.472;2023-07-30T04:34:44;16.70;99.90
15364;DHT22;7781;49.690;6.472;2023-07-30T04:37:12;16.80;99.90
15364;DHT22;7781;49.690;6.472;2023-07-30T04:39:41;16.80;99.90
15364;DHT22;7781;49.690;6.472;2023-07-30T04:42:10;16.90;99.90
15364;DHT22;7781;49.690;6.472;2023-07-30T04:44:43;16.80;99.90
15364;DHT22;7781;49.690;6.472;2023-07-30T04:47:15;16.80;99.90
15364;DHT22;7781;49.690;6.472;2023-07-30T04:49:44;16.90;99.90
15364;DHT22;7781;49.690;6.472;2023-07-30T04:52:12;16.90;99.90
15364;DHT22;7781;49.690;6.472;2023-07-30T04:54:42;16.90;99.90
15364;DHT22;7781;49.690;6.472;2023-07-30T04:57:11;16.90;99.90
15364;DHT22;7781;49.690;6.472;2023-07-30T04:59:40;17.00;99.90
15364;DHT22;7781;49.690;6.472;2023-07-30T05:02:11;17.00;99.90
15364;DHT22;7781;49.690;6.472;2023-07-30T05:04:39;17.00;99.90
15364;DHT22;7781;49.690;6.472;2023-07-30T05:07:08;17.00;99.90
15364;DHT22;7781;49.690;6.472;2023-07-30T05:09:38;17.00;99.90
15364;DHT22;7781;49.690;6.472;2023-07-30T05:12:10;17.00;99.90
15364;DHT22;7781;49.690;6.472;2023-07-30T05:14:38;17.00;99.90
15364;DHT22;7781;49.690;6.472;2023-07-30T05:17:07;17.00;99.90
15364;DHT22;7781;49.690;6.472;2023-07-30T05:19:37;17.10;99.90
15364;DHT22;7781;49.690;6.472;2023-07-30T05:22:07;17.10;99.90
15364;DHT22;7781;49.690;6.472;2023-07-30T05:24:36;17.10;99.90
15364;DHT22;7781;49.690;6.472;2023-07-30T05:27:06;17.20;99.90
15364;DHT22;7781;49.690;6.472;2023-07-30T05:29:35;17.20;99.90
15364;DHT22;7781;49.690;6.472;2023-07-30T05:32:06;17.30;99.90
15364;DHT22;7781;49.690;6.472;2023-07-30T05:34:36;17.20;99.90
15364;DHT22;7781;49.690;6.472;2023-07-30T05:37:05;17.30;99.90
15364;DHT22;7781;49.690;6.472;2023-07-30T05:39:34;17.30;99.90
15364;DHT22;7781;49.690;6.472;2023-07-30T05:42:04;17.40;99.90
15364;DHT22;7781;49.690;6.472;2023-07-30T05:44:32;17.40;99.90
15364;DHT22;7781;49.690;6.472;2023-07-30T05:47:01;17.50;99.90
15364;DHT22;7781;49.690;6.472;2023-07-30T05:49:30;17.50;99.90
15364;DHT22;7781;49.690;6.472;2023-07-30T05:52:00;17.50;99.90
15364;DHT22;7781;49.690;6.472;2023-07-30T05:54:29;17.50;99.90
15364;DHT22;7781;49.690;6.472;2023-07-30T05:56:57;17.50;99.90
15364;DHT22;7781;49.690;6.472;2023-07-30T05:59:26;17.60;99.90
15364;DHT22;7781;49.690;6.472;2023-07-30T06:01:56;17.70;99.90
15364;DHT22;7781;49.690;6.472;2023-07-30T06:04:24;17.70;99.90
15364;DHT22;7781;49.690;6.472;2023-07-30T06:06:52;17.70;99.90
15364;DHT22;7781;49.690;6.472;2023-07-30T06:09:22;17.70;99.90
15364;DHT22;7781;49.690;6.472;2023-07-30T06:11:52;17.70;99.90
15364;DHT22;7781;49.690;6.472;2023-07-30T06:14:21;17.40;99.90
15364;DHT22;7781;49.690;6.472;2023-07-30T06:16:49;17.10;99.90
15364;DHT22;7781;49.690;6.472;2023-07-30T06:19:21;16.90;99.90
15364;DHT22;7781;49.690;6.472;2023-07-30T06:21:50;16.70;99.90
15364;DHT22;7781;49.690;6.472;2023-07-30T06:24:18;16.50;99.90
15364;DHT22;7781;49.690;6.472;2023-07-30T06:26:48;16.50;99.90
15364;DHT22;7781;49.690;6.472;2023-07-30T06:29:17;16.50;99.90
15364;DHT22;7781;49.690;6.472;2023-07-30T06:31:46;16.50;99.90
15364;DHT22;7781;49.690;6.472;2023-07-30T06:34:15;16.40;99.90
15364;DHT22;7781;49.690;6.472;2023-07-30T06:36:43;16.40;99.90
15364;DHT22;7781;49.690;6.472;2023-07-30T06:39:12;16.40;99.90
15364;DHT22;7781;49.690;6.472;2023-07-30T06:41:43;16.40;99.90
15364;DHT22;7781;49.690;6.472;2023-07-30T06:44:13;16.40;99.90
15364;DHT22;7781;49.690;6.472;2023-07-30T06:46:43;16.40;99.90
15364;DHT22;7781;49.690;6.472;2023-07-30T06:49:11;16.40;99.90
15364;DHT22;7781;49.690;6.472;2023-07-30T06:51:40;16.40;99.90
15364;DHT22;7781;49.690;6.472;2023-07-30T06:54:08;16.40;99.90
15364;DHT22;7781;49.690;6.472;2023-07-30T06:56:37;16.30;99.90
15364;DHT22;7781;49.690;6.472;2023-07-30T06:59:05;16.30;99.90
15364;DHT22;7781;49.690;6.472;2023-07-30T07:01:36;16.40;99.90
15364;DHT22;7781;49.690;6.472;2023-07-30T07:04:04;16.50;99.90
15364;DHT22;7781;49.690;6.472;2023-07-30T07:06:33;16.50;99.90
15364;DHT22;7781;49.690;6.472;2023-07-30T07:09:02;16.60;99.90
15364;DHT22;7781;49.690;6.472;2023-07-30T07:11:30;16.70;99.90
15364;DHT22;7781;49.690;6.472;2023-07-30T07:13:59;16.70;99.90
15364;DHT22;7781;49.690;6.472;2023-07-30T07:16:27;16.60;99.90
15364;DHT22;7781;49.690;6.472;2023-07-30T07:18:58;16.70;99.90
15364;DHT22;7781;49.690;6.472;2023-07-30T07:21:26;16.70;99.90
15364;DHT22;7781;49.690;6.472;2023-07-30T07:23:55;16.80;99.90
15364;DHT22;7781;49.690;6.472;2023-07-30T07:26:24;16.90;99.90
15364;DHT22;7781;49.690;6.472;2023-07-30T07:28:52;16.90;99.90
15364;DHT22;7781;49.690;6.472;2023-07-30T07:31:24;16.90;99.90
15364;DHT22;7781;49.690;6.472;2023-07-30T07:33:52;17.00;99.90
15364;DHT22;7781;49.690;6.472;2023-07-30T07:36:22;16.90;99.90
15364;DHT22;7781;49.690;6.472;2023-07-30T07:38:50;16.90;99.90
15364;DHT22;7781;49.690;6.472;2023-07-30T07:41:21;16.90;99.90
15364;DHT22;7781;49.690;6.472;2023-07-30T07:43:50;17.00;99.90
15364;DHT22;7781;49.690;6.472;2023-07-30T07:46:21;17.00;99.90
15364;DHT22;7781;49.690;6.472;2023-07-30T07:48:49;16.90;99.90
15364;DHT22;7781;49.690;6.472;2023-07-30T07:51:17;17.10;99.90
15364;DHT22;7781;49.690;6.472;2023-07-30T07:53:47;17.20;99.90
15364;DHT22;7781;49.690;6.472;2023-07-30T07:56:16;17.20;99.90
15364;DHT22;7781;49.690;6.472;2023-07-30T07:58:44;17.20;99.90
15364;DHT22;7781;49.690;6.472;2023-07-30T08:01:13;17.20;99.90
15364;DHT22;7781;49.690;6.472;2023-07-30T08:03:42;17.10;99.90
15364;DHT22;7781;49.690;6.472;2023-07-30T08:06:10;17.10;99.90
15364;DHT22;7781;49.690;6.472;2023-07-30T08:08:38;17.10;99.90
15364;DHT22;7781;49.690;6.472;2023-07-30T08:11:09;17.20;99.90
15364;DHT22;7781;49.690;6.472;2023-07-30T08:13:38;17.30;99.90
15364;DHT22;7781;49.690;6.472;2023-07-30T08:16:06;17.40;99.90
15364;DHT22;7781;49.690;6.472;2023-07-30T08:18:35;17.40;99.90
15364;DHT22;7781;49.690;6.472;2023-07-30T08:21:03;17.40;99.90
15364;DHT22;7781;49.690;6.472;2023-07-30T08:23:31;17.50;99.90
15364;DHT22;7781;49.690;6.472;2023-07-30T08:26:00;17.50;99.90
15364;DHT22;7781;49.690;6.472;2023-07-30T08:28:30;17.60;99.90
15364;DHT22;7781;49.690;6.472;2023-07-30T08:31:00;17.60;99.90
15364;DHT22;7781;49.690;6.472;2023-07-30T08:33:29;17.60;99.90
15364;DHT22;7781;49.690;6.472;2023-07-30T08:35:59;17.50;99.90
15364;DHT22;7781;49.690;6.472;2023-07-30T08:38:28;17.50;99.90
15364;DHT22;7781;49.690;6.472;2023-07-30T08:40:57;17.50;99.90
15364;DHT22;7781;49.690;6.472;2023-07-30T08:43:26;17.50;99.90
15364;DHT22;7781;49.690;6.472;2023-07-30T08:45:56;17.60;99.90
15364;DHT22;7781;49.690;6.472;2023-07-30T08:48:25;17.60;99.90
15364;DHT22;7781;49.690;6.472;2023-07-30T08:50:57;17.60;99.90
15364;DHT22;7781;49.690;6.472;2023-07-30T08:53:25;17.60;99.90
15364;DHT22;7781;49.690;6.472;2023-07-30T08:55:54;17.60;99.90
15364;DHT22;7781;49.690;6.472;2023-07-30T08:58:26;17.60;99.90
15364;DHT22;7781;49.690;6.472;2023-07-30T09:00:58;17.50;99.90
15364;DHT22;7781;49.690;6.472;2023-07-30T09:03:28;17.40;99.90
15364;DHT22;7781;49.690;6.472;2023-07-30T09:05:57;17.30;99.90
15364;DHT22;7781;49.690;6.472;2023-07-30T09:08:26;17.30;99.90
15364;DHT22;7781;49.690;6.472;2023-07-30T09:10:55;17.30;99.90
15364;DHT22;7781;49.690;6.472;2023-07-30T09:13:24;17.30;99.90
15364;DHT22;7781;49.690;6.472;2023-07-30T09:15:52;17.40;99.90
15364;DHT22;7781;49.690;6.472;2023-07-30T09:18:22;17.30;99.90
15364;DHT22;7781;49.690;6.472;2023-07-30T09:20:51;17.20;99.90
15364;DHT22;7781;49.690;6.472;2023-07-30T09:23:19;17.30;99.90
15364;DHT22;7781;49.690;6.472;2023-07-30T09:25:48;17.30;99.90
15364;DHT22;7781;49.690;6.472;2023-07-30T09:28:18;17.40;99.90
15364;DHT22;7781;49.690;6.472;2023-07-30T09:30:49;17.50;99.90
15364;DHT22;7781;49.690;6.472;2023-07-30T09:33:19;17.60;99.90
15364;DHT22;7781;49.690;6.472;2023-07-30T09:35:50;17.70;99.90
15364;DHT22;7781;49.690;6.472;2023-07-30T09:38:20;17.70;99.90
15364;DHT22;7781;49.690;6.472;2023-07-30T09:40:49;17.80;99.90
15364;DHT22;7781;49.690;6.472;2023-07-30T09:43:18;17.80;99.90
15364;DHT22;7781;49.690;6.472;2023-07-30T09:45:47;17.80;99.90
15364;DHT22;7781;49.690;6.472;2023-07-30T09:48:16;17.90;99.90
15364;DHT22;7781;49.690;6.472;2023-07-30T09:50:45;17.90;99.90
15364;DHT22;7781;49.690;6.472;2023-07-30T09:53:16;18.00;99.90
15364;DHT22;7781;49.690;6.472;2023-07-30T09:55:45;18.10;99.90
15364;DHT22;7781;49.690;6.472;2023-07-30T09:58:14;18.20;99.90
15364;DHT22;7781;49.690;6.472;2023-07-30T10:00:43;18.20;80.90
15364;DHT22;7781;49.690;6.472;2023-07-30T10:03:15;18.40;62.50
15364;DHT22;7781;49.690;6.472;2023-07-30T10:05:44;18.30;75.70
15364;DHT22;7781;49.690;6.472;2023-07-30T10:08:21;18.30;72.00
15364;DHT22;7781;49.690;6.472;2023-07-30T10:10:53;18.30;69.70
15364;DHT22;7781;49.690;6.472;2023-07-30T10:13:22;18.50;87.40
15364;DHT22;7781;49.690;6.472;2023-07-30T10:15:51;18.70;79.30
15364;DHT22;7781;49.690;6.472;2023-07-30T10:18:20;18.80;72.90
15364;DHT22;7781;49.690;6.472;2023-07-30T10:20:53;19.00;56.20
15364;DHT22;7781;49.690;6.472;2023-07-30T10:23:29;19.20;59.00
15364;DHT22;7781;49.690;6.472;2023-07-30T10:26:09;19.20;52.90
15364;DHT22;7781;49.690;6.472;2023-07-30T10:28:38;19.50;44.20
15364;DHT22;7781;49.690;6.472;2023-07-30T10:31:10;19.70;50.30
15364;DHT22;7781;49.690;6.472;2023-07-30T10:33:45;19.80;28.90
15364;DHT22;7781;49.690;6.472;2023-07-30T10:36:15;19.90;31.50
15364;DHT22;7781;49.690;6.472;2023-07-30T10:38:46;20.00;28.70
15364;DHT22;7781;49.690;6.472;2023-07-30T10:41:15;20.00;27.80
15364;DHT22;7781;49.690;6.472;2023-07-30T10:43:47;19.80;27.40
15364;DHT22;7781;49.690;6.472;2023-07-30T10:46:17;19.70;27.50
15364;DHT22;7781;49.690;6.472;2023-07-30T10:48:48;19.70;26.80
15364;DHT22;7781;49.690;6.472;2023-07-30T10:51:17;19.70;26.10
15364;DHT22;7781;49.690;6.472;2023-07-30T10:53:50;19.70;22.40
15364;DHT22;7781;49.690;6.472;2023-07-30T10:56:22;19.70;28.40
15364;DHT22;7781;49.690;6.472;2023-07-30T10:58:53;19.70;21.60
15364;DHT22;7781;49.690;6.472;2023-07-30T11:01:24;19.70;20.80
15364;DHT22;7781;49.690;6.472;2023-07-30T11:03:54;19.70;29.80
15364;DHT22;7781;49.690;6.472;2023-07-30T11:06:23;19.70;27.20
15364;DHT22;7781;49.690;6.472;2023-07-30T11:08:54;19.80;29.30
15364;DHT22;7781;49.690;6.472;2023-07-30T11:11:22;19.90;24.60
15364;DHT22;7781;49.690;6.472;2023-07-30T11:13:52;19.90;23.50
15364;DHT22;7781;49.690;6.472;2023-07-30T11:16:21;19.80;22.50
15364;DHT22;7781;49.690;6.472;2023-07-30T11:18:51;19.80;24.70
15364;DHT22;7781;49.690;6.472;2023-07-30T11:21:22;19.90;29.40
15364;DHT22;7781;49.690;6.472;2023-07-30T11:23:52;20.10;25.30
15364;DHT22;7781;49.690;6.472;2023-07-30T11:26:21;20.30;22.50
15364;DHT22;7781;49.690;6.472;2023-07-30T11:28:50;20.50;21.60
15364;DHT22;7781;49.690;6.472;2023-07-30T11:31:19;20.50;19.40
15364;DHT22;7781;49.690;6.472;2023-07-30T11:33:50;20.50;22.90
15364;DHT22;7781;49.690;6.472;2023-07-30T11:36:21;20.50;19.60
15364;DHT22;7781;49.690;6.472;2023-07-30T11:38:51;20.50;19.00
15364;DHT22;7781;49.690;6.472;2023-07-30T11:41:23;20.40;16.80
15364;DHT22;7781;49.690;6.472;2023-07-30T11:43:52;20.10;15.30
15364;DHT22;7781;49.690;6.472;2023-07-30T11:46:20;20.00;17.80
15364;DHT22;7781;49.690;6.472;2023-07-30T11:48:51;20.10;18.40
15364;DHT22;7781;49.690;6.472;2023-07-30T11:51:21;20.20;19.20
15364;DHT22;7781;49.690;6.472;2023-07-30T11:53:52;20.40;15.10
15364;DHT22;7781;49.690;6.472;2023-07-30T11:56:23;20.60;10.40
15364;DHT22;7781;49.690;6.472;2023-07-30T11:58:54;20.40;9.80
15364;DHT22;7781;49.690;6.472;2023-07-30T12:01:25;20.50;12.60
15364;DHT22;7781;49.690;6.472;2023-07-30T12:03:55;20.50;8.90
15364;DHT22;7781;49.690;6.472;2023-07-30T12:06:38;20.50;9.00
15364;DHT22;7781;49.690;6.472;2023-07-30T12:09:11;20.40;8.40
15364;DHT22;7781;49.690;6.472;2023-07-30T12:11:51;20.30;8.80
15364;DHT22;7781;49.690;6.472;2023-07-30T12:14:22;20.30;10.70
15364;DHT22;7781;49.690;6.472;2023-07-30T12:16:52;20.30;10.60
15364;DHT22;7781;49.690;6.472;2023-07-30T12:19:21;20.50;12.40
15364;DHT22;7781;49.690;6.472;2023-07-30T12:21:50;21.10;11.60
15364;DHT22;7781;49.690;6.472;2023-07-30T12:24:19;21.30;3.60
15364;DHT22;7781;49.690;6.472;2023-07-30T12:26:50;21.50;1.00
15364;DHT22;7781;49.690;6.472;2023-07-30T12:29:22;21.70;1.00
15364;DHT22;7781;49.690;6.472;2023-07-30T12:31:51;21.80;1.00
15364;DHT22;7781;49.690;6.472;2023-07-30T12:34:21;22.00;1.00
15364;DHT22;7781;49.690;6.472;2023-07-30T12:36:50;21.90;1.00
15364;DHT22;7781;49.690;6.472;2023-07-30T12:39:18;22.00;1.00
15364;DHT22;7781;49.690;6.472;2023-07-30T12:41:47;22.10;1.00
15364;DHT22;7781;49.690;6.472;2023-07-30T12:44:17;21.80;1.00
15364;DHT22;7781;49.690;6.472;2023-07-30T12:46:46;21.60;1.00
15364;DHT22;7781;49.690;6.472;2023-07-30T12:49:14;21.50;1.00
15364;DHT22;7781;49.690;6.472;2023-07-30T12:51:43;21.40;1.00
15364;DHT22;7781;49.690;6.472;2023-07-30T12:54:12;21.40;1.00
15364;DHT22;7781;49.690;6.472;2023-07-30T12:56:40;21.40;1.00
15364;DHT22;7781;49.690;6.472;2023-07-30T12:59:09;21.80;1.00
15364;DHT22;7781;49.690;6.472;2023-07-30T13:01:39;22.30;1.00
15364;DHT22;7781;49.690;6.472;2023-07-30T13:04:13;22.90;1.00
15364;DHT22;7781;49.690;6.472;2023-07-30T13:06:42;23.30;1.00
15364;DHT22;7781;49.690;6.472;2023-07-30T13:09:11;23.20;1.00
15364;DHT22;7781;49.690;6.472;2023-07-30T13:11:40;22.90;1.00
15364;DHT22;7781;49.690;6.472;2023-07-30T13:14:08;22.60;1.00
15364;DHT22;7781;49.690;6.472;2023-07-30T13:16:36;22.20;1.00
15364;DHT22;7781;49.690;6.472;2023-07-30T13:19:07;21.90;1.00
15364;DHT22;7781;49.690;6.472;2023-07-30T13:21:35;21.90;1.00
15364;DHT22;7781;49.690;6.472;2023-07-30T13:24:04;21.80;1.00
15364;DHT22;7781;49.690;6.472;2023-07-30T13:26:34;21.60;1.00
15364;DHT22;7781;49.690;6.472;2023-07-30T13:29:04;21.60;1.00
15364;DHT22;7781;49.690;6.472;2023-07-30T13:31:32;21.60;1.00
15364;DHT22;7781;49.690;6.472;2023-07-30T13:34:01;22.00;1.00
15364;DHT22;7781;49.690;6.472;2023-07-30T13:36:31;22.00;1.00
15364;DHT22;7781;49.690;6.472;2023-07-30T13:38:59;22.00;1.00
15364;DHT22;7781;49.690;6.472;2023-07-30T13:41:28;22.10;1.00
15364;DHT22;7781;49.690;6.472;2023-07-30T13:43:56;22.70;1.00
15364;DHT22;7781;49.690;6.472;2023-07-30T13:46:25;23.40;1.00
15364;DHT22;7781;49.690;6.472;2023-07-30T13:48:53;23.90;1.00
15364;DHT22;7781;49.690;6.472;2023-07-30T13:51:22;24.00;1.00
15364;DHT22;7781;49.690;6.472;2023-07-30T13:53:52;24.00;1.00
15364;DHT22;7781;49.690;6.472;2023-07-30T13:56:20;24.40;1.00
15364;DHT22;7781;49.690;6.472;2023-07-30T13:58:49;24.90;1.00
15364;DHT22;7781;49.690;6.472;2023-07-30T14:01:17;25.30;1.00
15364;DHT22;7781;49.690;6.472;2023-07-30T14:03:45;25.50;1.00
15364;DHT22;7781;49.690;6.472;2023-07-30T14:06:14;25.30;1.00
15364;DHT22;7781;49.690;6.472;2023-07-30T14:08:43;25.20;1.00
15364;DHT22;7781;49.690;6.472;2023-07-30T14:11:13;24.80;1.00
15364;DHT22;7781;49.690;6.472;2023-07-30T14:13:41;24.70;1.00
15364;DHT22;7781;49.690;6.472;2023-07-30T14:16:09;24.90;1.00
15364;DHT22;7781;49.690;6.472;2023-07-30T14:18:38;25.10;1.00
15364;DHT22;7781;49.690;6.472;2023-07-30T14:21:07;25.60;1.00
15364;DHT22;7781;49.690;6.472;2023-07-30T14:23:35;25.50;1.00
15364;DHT22;7781;49.690;6.472;2023-07-30T14:26:04;25.10;1.00
15364;DHT22;7781;49.690;6.472;2023-07-30T14:28:35;25.50;1.00
15364;DHT22;7781;49.690;6.472;2023-07-30T14:31:04;25.10;1.00
15364;DHT22;7781;49.690;6.472;2023-07-30T14:33:33;24.80;1.00
15364;DHT22;7781;49.690;6.472;2023-07-30T14:36:04;24.40;1.00
15364;DHT22;7781;49.690;6.472;2023-07-30T14:38:32;24.20;1.00
15364;DHT22;7781;49.690;6.472;2023-07-30T14:41:01;24.50;1.00
15364;DHT22;7781;49.690;6.472;2023-07-30T14:43:29;25.10;1.00
15364;DHT22;7781;49.690;6.472;2023-07-30T14:45:59;25.60;1.00
15364;DHT22;7781;49.690;6.472;2023-07-30T14:48:27;25.50;1.00
15364;DHT22;7781;49.690;6.472;2023-07-30T14:50:56;25.50;1.00
15364;DHT22;7781;49.690;6.472;2023-07-30T14:53:24;25.70;1.00
15364;DHT22;7781;49.690;6.472;2023-07-30T14:55:53;26.00;1.00
15364;DHT22;7781;49.690;6.472;2023-07-30T14:58:21;25.90;1.00
15364;DHT22;7781;49.690;6.472;2023-07-30T15:00:50;26.20;1.00
15364;DHT22;7781;49.690;6.472;2023-07-30T15:03:20;26.60;1.00
15364;DHT22;7781;49.690;6.472;2023-07-30T15:05:50;26.90;1.00
15364;DHT22;7781;49.690;6.472;2023-07-30T15:08:19;26.30;1.00
15364;DHT22;7781;49.690;6.472;2023-07-30T15:10:47;25.80;1.00
15364;DHT22;7781;49.690;6.472;2023-07-30T15:13:17;25.30;1.00
15364;DHT22;7781;49.690;6.472;2023-07-30T15:15:46;25.10;1.00
15364;DHT22;7781;49.690;6.472;2023-07-30T15:18:15;24.50;1.00
15364;DHT22;7781;49.690;6.472;2023-07-30T15:20:45;25.00;1.00
15364;DHT22;7781;49.690;6.472;2023-07-30T15:23:14;25.30;1.00
15364;DHT22;7781;49.690;6.472;2023-07-30T15:25:44;25.20;1.00
15364;DHT22;7781;49.690;6.472;2023-07-30T15:28:12;24.40;1.00
15364;DHT22;7781;49.690;6.472;2023-07-30T15:30:41;24.20;1.00
15364;DHT22;7781;49.690;6.472;2023-07-30T15:33:10;24.20;1.00
15364;DHT22;7781;49.690;6.472;2023-07-30T15:35:39;24.20;1.00
15364;DHT22;7781;49.690;6.472;2023-07-30T15:38:09;24.00;1.00
15364;DHT22;7781;49.690;6.472;2023-07-30T15:40:38;23.90;1.00
15364;DHT22;7781;49.690;6.472;2023-07-30T15:43:08;23.80;1.00
15364;DHT22;7781;49.690;6.472;2023-07-30T15:45:38;23.80;1.00
15364;DHT22;7781;49.690;6.472;2023-07-30T15:48:09;24.00;1.00
15364;DHT22;7781;49.690;6.472;2023-07-30T15:50:39;23.70;1.00
15364;DHT22;7781;49.690;6.472;2023-07-30T15:53:10;23.80;1.00
15364;DHT22;7781;49.690;6.472;2023-07-30T15:55:39;23.40;1.00
15364;DHT22;7781;49.690;6.472;2023-07-30T15:58:07;23.30;1.00
15364;DHT22;7781;49.690;6.472;2023-07-30T16:00:36;23.40;1.00
15364;DHT22;7781;49.690;6.472;2023-07-30T16:03:04;23.40;1.00